sensor_id;sensor_type;location;lat;lon;timestamp;temperature;humidity
58554;DHT22;48119;53.218;6.576;2023-05-10T00:00:09;16.90;99.90
58554;DHT22;48119;53.218;6.576;2023-05-10T00:02:37;16.90;99.90
58554;DHT22;48119;53.218;6.576;2023-05-10T00:05:10;16.80;99.90
58554;DHT22;48119;53.218;6.576;2023-05-10T00:07:41;16.80;99.90
58554;DHT22;48119;53.218;6.576;2023-05-10T00:10:10;16.80;99.90
58554;DHT22;48119;53.218;6.576;2023-05-10T00:12:38;16.80;99.90
58554;DHT22;48119;53.218;6.576;2023-05-10T00:15:07;16.80;99.90
58554;DHT22;48119;53.218;6.576;2023-05-10T00:17:35;16.80;99.90
58554;DHT22;48119;53.218;6.576;2023-05-10T00:20:01;16.70;99.90
58554;DHT22;48119;53.218;6.576;2023-05-10T00:22:33;16.70;99.90
58554;DHT22;48119;53.218;6.576;2023-05-10T00:25:01;16.70;99.90
58554;DHT22;48119;53.218;6.576;2023-05-10T00:27:27;16.60;99.90
58554;DHT22;48119;53.218;6.576;2023-05-10T00:29:53;16.60;99.90
58554;DHT22;48119;53.218;6.576;2023-05-10T00:32:21;16.60;99.90
58554;DHT22;48119;53.218;6.576;2023-05-10T00:34:47;16.60;99.90
58554;DHT22;48119;53.218;6.576;2023-05-10T00:37:13;16.60;99.90
58554;DHT22;48119;53.218;6.576;2023-05-10T00:39:39;16.60;99.90
58554;DHT22;48119;53.218;6.576;2023-05-10T00:42:12;16.60;99.90
58554;DHT22;48119;53.218;6.576;2023-05-10T00:44:38;16.60;99.90
58554;DHT22;48119;53.218;6.576;2023-05-10T00:47:04;16.60;99.90
58554;DHT22;48119;53.218;6.576;2023-05-10T00:49:30;16.50;99.90
58554;DHT22;48119;53.218;6.576;2023-05-10T00:51:59;16.60;99.90
58554;DHT22;48119;53.218;6.576;2023-05-10T00:54:25;16.60;99.90
58554;DHT22;48119;53.218;6.576;2023-05-10T00:56:54;16.50;99.90
58554;DHT22;48119;53.218;6.576;2023-05-10T00:59:25;16.50;99.90
58554;DHT22;48119;53.218;6.576;2023-05-10T01:01:52;16.50;99.90
58554;DHT22;48119;53.218;6.576;2023-05-10T01:04:18;16.50;99.90
58554;DHT22;48119;53.218;6.576;2023-05-10T01:06:53;16.50;99.90
58554;DHT22;48119;53.218;6.576;2023-05-10T01:09:21;16.50;99.90
58554;DHT22;48119;53.218;6.576;2023-05-10T01:11:50;16.50;99.90
58554;DHT22;48119;53.218;6.576;2023-05-10T01:14:18;16.40;99.90
58554;DHT22;48119;53.218;6.576;2023-05-10T01:16:45;16.40;99.90
58554;DHT22;48119;53.218;6.576;2023-05-10T01:19:19;16.40;99.90
58554;DHT22;48119;53.218;6.576;2023-05-10T01:28:08;16.40;99.90
58554;DHT22;48119;53.218;6.576;2023-05-10T01:36:43;16.30;99.90
58554;DHT22;48119;53.218;6.576;2023-05-10T01:39:37;16.40;99.90
58554;DHT22;48119;53.218;6.576;2023-05-10T01:42:25;16.30;99.90
58554;DHT22;48119;53.218;6.576;2023-05-10T01:44:58;16.30;99.90
58554;DHT22;48119;53.218;6.576;2023-05-10T01:47:33;16.20;99.90
58554;DHT22;48119;53.218;6.576;2023-05-10T01:50:04;16.30;99.90
58554;DHT22;48119;53.218;6.576;2023-05-10T01:52:37;16.30;99.90
58554;DHT22;48119;53.218;6.576;2023-05-10T01:55:10;16.30;99.90
58554;DHT22;48119;53.218;6.576;2023-05-10T01:57:39;16.30;99.90
58554;DHT22;48119;53.218;6.576;2023-05-10T02:00:07;16.30;99.90
58554;DHT22;48119;53.218;6.576;2023-05-10T02:02:41;16.20;99.90
58554;DHT22;48119;53.218;6.576;2023-05-10T02:05:15;16.30;99.90
58554;DHT22;48119;53.218;6.576;2023-05-10T02:07:44;16.30;99.90
58554;DHT22;48119;53.218;6.576;2023-05-10T02:10:11;16.30;99.90
58554;DHT22;48119;53.218;6.576;2023-05-10T02:12:44;16.30;99.90
58554;DHT22;48119;53.218;6.576;2023-05-10T02:15:24;16.30;99.90
58554;DHT22;48119;53.218;6.576;2023-05-10T02:17:58;16.20;99.90
58554;DHT22;48119;53.218;6.576;2023-05-10T02:20:26;16.20;99.90
58554;DHT22;48119;53.218;6.576;2023-05-10T02:22:56;16.20;99.90
58554;DHT22;48119;53.218;6.576;2023-05-10T02:25:23;16.20;99.90
58554;DHT22;48119;53.218;6.576;2023-05-10T02:27:51;16.20;99.90
58554;DHT22;48119;53.218;6.576;2023-05-10T02:30:22;16.20;99.90
58554;DHT22;48119;53.218;6.576;2023-05-10T02:32:56;16.20;99.90
58554;DHT22;48119;53.218;6.576;2023-05-10T02:35:23;16.20;99.90
58554;DHT22;48119;53.218;6.576;2023-05-10T02:37:50;16.10;99.90
58554;DHT22;48119;53.218;6.576;2023-05-10T02:40:16;16.10;99.90
58554;DHT22;48119;53.218;6.576;2023-05-10T02:42:47;16.10;99.90
58554;DHT22;48119;53.218;6.576;2023-05-10T02:45:21;16.20;99.90
58554;DHT22;48119;53.218;6.576;2023-05-10T02:47:49;16.20;99.90
58554;DHT22;48119;53.218;6.576;2023-05-10T02:50:15;16.10;99.90
58554;DHT22;48119;53.218;6.576;2023-05-10T02:52:49;16.10;99.90
58554;DHT22;48119;53.218;6.576;2023-05-10T02:55:19;16.20;99.90
58554;DHT22;48119;53.218;6.576;2023-05-10T02:57:57;16.10;99.90
58554;DHT22;48119;53.218;6.576;2023-05-10T03:00:24;16.10;99.90
58554;DHT22;48119;53.218;6.576;2023-05-10T03:02:53;16.10;99.90
58554;DHT22;48119;53.218;6.576;2023-05-10T03:05:20;16.10;99.90
58554;DHT22;48119;53.218;6.576;2023-05-10T03:07:49;16.10;99.90
58554;DHT22;48119;53.218;6.576;2023-05-10T03:10:18;16.20;99.90
58554;DHT22;48119;53.218;6.576;2023-05-10T03:18:29;16.20;99.90
58554;DHT22;48119;53.218;6.576;2023-05-10T03:21:01;16.20;99.90
58554;DHT22;48119;53.218;6.576;2023-05-10T03:23:50;16.30;99.90
58554;DHT22;48119;53.218;6.576;2023-05-10T03:26:25;16.20;99.90
58554;DHT22;48119;53.218;6.576;2023-05-10T03:28:55;16.20;99.90
58554;DHT22;48119;53.218;6.576;2023-05-10T03:31:24;16.20;99.90
58554;DHT22;48119;53.218;6.576;2023-05-10T03:34:00;16.20;99.90
58554;DHT22;48119;53.218;6.576;2023-05-10T03:36:26;16.20;99.90
58554;DHT22;48119;53.218;6.576;2023-05-10T03:38:52;16.10;99.90
58554;DHT22;48119;53.218;6.576;2023-05-10T03:41:18;16.10;99.90
58554;DHT22;48119;53.218;6.576;2023-05-10T03:43:47;16.10;99.90
58554;DHT22;48119;53.218;6.576;2023-05-10T03:46:13;16.10;99.90
58554;DHT22;48119;53.218;6.576;2023-05-10T03:48:56;16.20;99.90
58554;DHT22;48119;53.218;6.576;2023-05-10T03:51:26;16.10;99.90
58554;DHT22;48119;53.218;6.576;2023-05-10T03:53:54;16.10;99.90
58554;DHT22;48119;53.218;6.576;2023-05-10T03:56:27;16.20;99.90
58554;DHT22;48119;53.218;6.576;2023-05-10T03:58:53;16.20;99.90
58554;DHT22;48119;53.218;6.576;2023-05-10T04:01:21;16.10;99.90
58554;DHT22;48119;53.218;6.576;2023-05-10T04:03:49;16.10;99.90
58554;DHT22;48119;53.218;6.576;2023-05-10T04:06:18;16.20;99.90
58554;DHT22;48119;53.218;6.576;2023-05-10T04:08:46;16.20;99.90
58554;DHT22;48119;53.218;6.576;2023-05-10T04:11:12;16.10;99.90
58554;DHT22;48119;53.218;6.576;2023-05-10T04:13:54;16.20;99.90
58554;DHT22;48119;53.218;6.576;2023-05-10T04:16:23;16.10;99.90
58554;DHT22;48119;53.218;6.576;2023-05-10T04:18:48;16.10;99.90
58554;DHT22;48119;53.218;6.576;2023-05-10T04:21:15;16.00;99.90
58554;DHT22;48119;53.218;6.576;2023-05-10T04:23:43;16.00;99.90
58554;DHT22;48119;53.218;6.576;2023-05-10T04:26:09;16.00;99.90
58554;DHT22;48119;53.218;6.576;2023-05-10T04:28:37;16.00;99.90
58554;DHT22;48119;53.218;6.576;2023-05-10T04:31:07;16.00;99.90
58554;DHT22;48119;53.218;6.576;2023-05-10T04:33:33;16.00;99.90
58554;DHT22;48119;53.218;6.576;2023-05-10T04:35:59;16.00;99.90
58554;DHT22;48119;53.218;6.576;2023-05-10T04:38:29;15.90;99.90
58554;DHT22;48119;53.218;6.576;2023-05-10T04:40:55;15.90;99.90
58554;DHT22;48119;53.218;6.576;2023-05-10T04:43:28;15.90;99.90
58554;DHT22;48119;53.218;6.576;2023-05-10T04:45:56;15.90;99.90
58554;DHT22;48119;53.218;6.576;2023-05-10T04:48:22;15.90;99.90
58554;DHT22;48119;53.218;6.576;2023-05-10T04:50:48;15.90;99.90
58554;DHT22;48119;53.218;6.576;2023-05-10T04:53:23;15.90;99.90
58554;DHT22;48119;53.218;6.576;2023-05-10T04:55:49;15.90;99.90
58554;DHT22;48119;53.218;6.576;2023-05-10T04:58:15;15.90;99.90
58554;DHT22;48119;53.218;6.576;2023-05-10T05:00:41;15.90;99.90
58554;DHT22;48119;53.218;6.576;2023-05-10T05:03:07;15.90;99.90
58554;DHT22;48119;53.218;6.576;2023-05-10T05:05:33;15.90;99.90
58554;DHT22;48119;53.218;6.576;2023-05-10T05:07:59;15.80;99.90
58554;DHT22;48119;53.218;6.576;2023-05-10T05:10:26;15.80;99.90
58554;DHT22;48119;53.218;6.576;2023-05-10T05:12:52;15.80;99.90
58554;DHT22;48119;53.218;6.576;2023-05-10T05:22:25;15.80;99.90
58554;DHT22;48119;53.218;6.576;2023-05-10T05:24:57;15.80;99.90
58554;DHT22;48119;53.218;6.576;2023-05-10T05:27:35;15.80;99.90
58554;DHT22;48119;53.218;6.576;2023-05-10T05:30:04;15.80;99.90
58554;DHT22;48119;53.218;6.576;2023-05-10T05:32:30;15.80;99.90
58554;DHT22;48119;53.218;6.576;2023-05-10T05:34:58;15.80;99.90
58554;DHT22;48119;53.218;6.576;2023-05-10T05:37:24;15.80;99.90
58554;DHT22;48119;53.218;6.576;2023-05-10T05:39:49;15.80;99.90
58554;DHT22;48119;53.218;6.576;2023-05-10T05:42:15;15.80;99.90
58554;DHT22;48119;53.218;6.576;2023-05-10T05:44:44;15.80;99.90
58554;DHT22;48119;53.218;6.576;2023-05-10T05:47:10;15.80;99.90
58554;DHT22;48119;53.218;6.576;2023-05-10T05:49:36;15.80;99.90
58554;DHT22;48119;53.218;6.576;2023-05-10T05:52:10;15.80;99.90
58554;DHT22;48119;53.218;6.576;2023-05-10T05:54:37;15.80;99.90
58554;DHT22;48119;53.218;6.576;2023-05-10T05:57:03;15.80;99.90
58554;DHT22;48119;53.218;6.576;2023-05-10T05:59:29;15.80;99.90
58554;DHT22;48119;53.218;6.576;2023-05-10T06:01:57;15.80;99.90
58554;DHT22;48119;53.218;6.576;2023-05-10T06:04:27;15.80;99.90
58554;DHT22;48119;53.218;6.576;2023-05-10T06:06:52;15.80;99.90
58554;DHT22;48119;53.218;6.576;2023-05-10T06:09:26;15.70;99.90
58554;DHT22;48119;53.218;6.576;2023-05-10T06:11:52;15.80;99.90
58554;DHT22;48119;53.218;6.576;2023-05-10T06:14:19;15.70;99.90
58554;DHT22;48119;53.218;6.576;2023-05-10T06:16:53;15.70;99.90
58554;DHT22;48119;53.218;6.576;2023-05-10T06:19:19;15.80;99.90
58554;DHT22;48119;53.218;6.576;2023-05-10T06:21:44;15.70;99.90
58554;DHT22;48119;53.218;6.576;2023-05-10T06:24:13;15.80;99.90
58554;DHT22;48119;53.218;6.576;2023-05-10T06:26:39;15.70;99.90
58554;DHT22;48119;53.218;6.576;2023-05-10T06:29:06;15.70;99.90
58554;DHT22;48119;53.218;6.576;2023-05-10T06:31:32;15.70;99.90
58554;DHT22;48119;53.218;6.576;2023-05-10T06:33:58;15.70;99.90
58554;DHT22;48119;53.218;6.576;2023-05-10T06:36:27;15.70;99.90
58554;DHT22;48119;53.218;6.576;2023-05-10T06:38:55;15.70;99.90
58554;DHT22;48119;53.218;6.576;2023-05-10T06:41:21;15.70;99.90
58554;DHT22;48119;53.218;6.576;2023-05-10T06:43:47;15.70;99.90
58554;DHT22;48119;53.218;6.576;2023-05-10T06:46:16;15.70;99.90
58554;DHT22;48119;53.218;6.576;2023-05-10T06:48:42;15.70;99.90
58554;DHT22;48119;53.218;6.576;2023-05-10T06:51:07;15.70;99.90
58554;DHT22;48119;53.218;6.576;2023-05-10T06:53:38;15.70;99.90
58554;DHT22;48119;53.218;6.576;2023-05-10T06:56:04;15.60;99.90
58554;DHT22;48119;53.218;6.576;2023-05-10T06:58:39;15.60;99.90
58554;DHT22;48119;53.218;6.576;2023-05-10T07:01:05;15.60;99.90
58554;DHT22;48119;53.218;6.576;2023-05-10T07:03:46;15.60;99.90
58554;DHT22;48119;53.218;6.576;2023-05-10T07:06:12;15.60;99.90
58554;DHT22;48119;53.218;6.576;2023-05-10T07:08:40;15.60;99.90
58554;DHT22;48119;53.218;6.576;2023-05-10T07:11:06;15.60;99.90
58554;DHT22;48119;53.218;6.576;2023-05-10T07:13:36;15.60;99.90
58554;DHT22;48119;53.218;6.576;2023-05-10T07:16:03;15.60;99.90
58554;DHT22;48119;53.218;6.576;2023-05-10T07:18:31;15.60;99.90
58554;DHT22;48119;53.218;6.576;2023-05-10T07:20:57;15.60;99.90
58554;DHT22;48119;53.218;6.576;2023-05-10T07:23:23;15.60;99.90
58554;DHT22;48119;53.218;6.576;2023-05-10T07:25:52;15.60;99.90
58554;DHT22;48119;53.218;6.576;2023-05-10T07:28:18;15.60;99.90
58554;DHT22;48119;53.218;6.576;2023-05-10T07:30:45;15.60;99.90
58554;DHT22;48119;53.218;6.576;2023-05-10T07:33:13;15.60;99.90
58554;DHT22;48119;53.218;6.576;2023-05-10T07:35:39;15.60;99.90
58554;DHT22;48119;53.218;6.576;2023-05-10T07:38:05;15.60;99.90
58554;DHT22;48119;53.218;6.576;2023-05-10T07:40:31;15.60;99.90
58554;DHT22;48119;53.218;6.576;2023-05-10T07:43:02;15.60;99.90
58554;DHT22;48119;53.218;6.576;2023-05-10T07:45:36;15.60;99.90
58554;DHT22;48119;53.218;6.576;2023-05-10T07:48:04;15.60;99.90
58554;DHT22;48119;53.218;6.576;2023-05-10T07:50:30;15.50;99.90
58554;DHT22;48119;53.218;6.576;2023-05-10T07:52:56;15.50;99.90
58554;DHT22;48119;53.218;6.576;2023-05-10T07:55:22;15.50;99.90
58554;DHT22;48119;53.218;6.576;2023-05-10T07:57:48;15.60;99.90
58554;DHT22;48119;53.218;6.576;2023-05-10T08:00:17;15.60;99.90
58554;DHT22;48119;53.218;6.576;2023-05-10T08:02:47;15.60;99.90
58554;DHT22;48119;53.218;6.576;2023-05-10T08:05:15;15.60;99.90
58554;DHT22;48119;53.218;6.576;2023-05-10T08:07:41;15.60;99.90
58554;DHT22;48119;53.218;6.576;2023-05-10T08:10:10;15.60;99.90
58554;DHT22;48119;53.218;6.576;2023-05-10T08:12:37;15.60;99.90
58554;DHT22;48119;53.218;6.576;2023-05-10T08:15:06;15.60;99.90
58554;DHT22;48119;53.218;6.576;2023-05-10T08:17:35;15.60;99.90
58554;DHT22;48119;53.218;6.576;2023-05-10T08:20:01;15.60;99.90
58554;DHT22;48119;53.218;6.576;2023-05-10T08:22:27;15.60;99.90
58554;DHT22;48119;53.218;6.576;2023-05-10T08:24:53;15.60;99.90
58554;DHT22;48119;53.218;6.576;2023-05-10T08:27:19;15.60;99.90
58554;DHT22;48119;53.218;6.576;2023-05-10T08:29:44;15.60;99.90
58554;DHT22;48119;53.218;6.576;2023-05-10T08:32:12;15.60;99.90
58554;DHT22;48119;53.218;6.576;2023-05-10T08:34:41;15.60;99.90
58554;DHT22;48119;53.218;6.576;2023-05-10T08:37:07;15.60;99.90
58554;DHT22;48119;53.218;6.576;2023-05-10T08:39:36;15.60;99.90
58554;DHT22;48119;53.218;6.576;2023-05-10T08:42:05;15.60;99.90
58554;DHT22;48119;53.218;6.576;2023-05-10T08:44:32;15.60;99.90
58554;DHT22;48119;53.218;6.576;2023-05-10T08:47:05;15.60;99.90
58554;DHT22;48119;53.218;6.576;2023-05-10T08:49:35;15.60;99.90
58554;DHT22;48119;53.218;6.576;2023-05-10T08:52:04;15.60;99.90
58554;DHT22;48119;53.218;6.576;2023-05-10T08:54:32;15.60;99.90
58554;DHT22;48119;53.218;6.576;2023-05-10T08:57:01;15.60;99.90
58554;DHT22;48119;53.218;6.576;2023-05-10T08:59:27;15.60;99.90
58554;DHT22;48119;53.218;6.576;2023-05-10T09:01:54;15.60;99.90
58554;DHT22;48119;53.218;6.576;2023-05-10T09:04:24;15.50;99.90
58554;DHT22;48119;53.218;6.576;2023-05-10T09:06:50;15.60;99.90
58554;DHT22;48119;53.218;6.576;2023-05-10T09:09:17;15.70;99.90
58554;DHT22;48119;53.218;6.576;2023-05-10T09:11:46;15.70;99.90
58554;DHT22;48119;53.218;6.576;2023-05-10T09:14:15;15.60;99.90
58554;DHT22;48119;53.218;6.576;2023-05-10T09:16:41;15.70;99.90
58554;DHT22;48119;53.218;6.576;2023-05-10T09:19:10;15.60;99.90
58554;DHT22;48119;53.218;6.576;2023-05-10T09:21:36;15.60;99.90
58554;DHT22;48119;53.218;6.576;2023-05-10T09:24:06;15.60;99.90
58554;DHT22;48119;53.218;6.576;2023-05-10T09:26:32;15.70;99.90
58554;DHT22;48119;53.218;6.576;2023-05-10T09:28:59;15.70;99.90
58554;DHT22;48119;53.218;6.576;2023-05-10T09:31:48;15.70;99.90
58554;DHT22;48119;53.218;6.576;2023-05-10T09:34:27;15.70;99.90
58554;DHT22;48119;53.218;6.576;2023-05-10T09:36:59;15.70;99.90
58554;DHT22;48119;53.218;6.576;2023-05-10T09:39:36;15.70;99.90
58554;DHT22;48119;53.218;6.576;2023-05-10T09:42:09;15.70;99.90
58554;DHT22;48119;53.218;6.576;2023-05-10T09:44:36;15.70;99.90
58554;DHT22;48119;53.218;6.576;2023-05-10T09:47:03;15.80;99.90
58554;DHT22;48119;53.218;6.576;2023-05-10T09:49:30;15.80;99.90
58554;DHT22;48119;53.218;6.576;2023-05-10T09:52:04;15.80;99.90
58554;DHT22;48119;53.218;6.576;2023-05-10T09:54:33;15.90;99.90
58554;DHT22;48119;53.218;6.576;2023-05-10T09:57:00;15.90;99.90
58554;DHT22;48119;53.218;6.576;2023-05-10T09:59:27;15.90;99.90
58554;DHT22;48119;53.218;6.576;2023-05-10T10:02:03;15.90;99.90
58554;DHT22;48119;53.218;6.576;2023-05-10T10:05:00;15.90;99.90
58554;DHT22;48119;53.218;6.576;2023-05-10T10:07:48;15.90;99.90
58554;DHT22;48119;53.218;6.576;2023-05-10T10:13:23;16.00;99.90
58554;DHT22;48119;53.218;6.576;2023-05-10T10:18:41;16.00;99.90
58554;DHT22;48119;53.218;6.576;2023-05-10T10:21:10;16.00;99.90
58554;DHT22;48119;53.218;6.576;2023-05-10T10:23:36;16.10;99.90
58554;DHT22;48119;53.218;6.576;2023-05-10T10:26:03;16.10;99.90
58554;DHT22;48119;53.218;6.576;2023-05-10T10:29:03;16.10;99.90
58554;DHT22;48119;53.218;6.576;2023-05-10T10:34:36;16.20;99.90
58554;DHT22;48119;53.218;6.576;2023-05-10T10:37:06;16.30;99.90
58554;DHT22;48119;53.218;6.576;2023-05-10T10:39:32;16.30;99.90
58554;DHT22;48119;53.218;6.576;2023-05-10T10:42:04;16.30;99.90
58554;DHT22;48119;53.218;6.576;2023-05-10T10:52:46;16.30;99.90
58554;DHT22;48119;53.218;6.576;2023-05-10T10:55:18;16.30;99.90
58554;DHT22;48119;53.218;6.576;2023-05-10T10:57:57;16.30;99.90
58554;DHT22;48119;53.218;6.576;2023-05-10T11:00:37;16.30;99.90
58554;DHT22;48119;53.218;6.576;2023-05-10T11:03:15;16.30;99.90
58554;DHT22;48119;53.218;6.576;2023-05-10T11:05:50;16.40;99.90
58554;DHT22;48119;53.218;6.576;2023-05-10T11:08:43;16.40;99.90
58554;DHT22;48119;53.218;6.576;2023-05-10T11:11:16;16.40;99.90
58554;DHT22;48119;53.218;6.576;2023-05-10T11:13:55;16.40;99.90
58554;DHT22;48119;53.218;6.576;2023-05-10T11:16:35;16.50;99.90
58554;DHT22;48119;53.218;6.576;2023-05-10T11:19:17;16.40;99.90
58554;DHT22;48119;53.218;6.576;2023-05-10T11:24:38;16.40;99.90
58554;DHT22;48119;53.218;6.576;2023-05-10T11:27:07;16.40;99.90
58554;DHT22;48119;53.218;6.576;2023-05-10T11:29:33;16.40;99.90
58554;DHT22;48119;53.218;6.576;2023-05-10T11:31:59;16.50;99.90
58554;DHT22;48119;53.218;6.576;2023-05-10T11:34:31;16.50;99.90
58554;DHT22;48119;53.218;6.576;2023-05-10T11:36:59;16.50;99.90
58554;DHT22;48119;53.218;6.576;2023-05-10T11:39:32;16.50;99.90
58554;DHT22;48119;53.218;6.576;2023-05-10T11:42:06;16.50;99.90
58554;DHT22;48119;53.218;6.576;2023-05-10T11:44:40;16.50;99.90
58554;DHT22;48119;53.218;6.576;2023-05-10T11:47:12;16.50;99.90
58554;DHT22;48119;53.218;6.576;2023-05-10T11:49:49;16.50;99.90
58554;DHT22;48119;53.218;6.576;2023-05-10T11:52:15;16.50;99.90
58554;DHT22;48119;53.218;6.576;2023-05-10T11:54:58;16.50;99.90
58554;DHT22;48119;53.218;6.576;2023-05-10T11:57:30;16.50;99.90
58554;DHT22;48119;53.218;6.576;2023-05-10T11:59:59;16.50;99.90
58554;DHT22;48119;53.218;6.576;2023-05-10T12:02:28;16.50;99.90
58554;DHT22;48119;53.218;6.576;2023-05-10T12:04:55;16.60;99.90
58554;DHT22;48119;53.218;6.576;2023-05-10T12:07:21;16.60;99.90
58554;DHT22;48119;53.218;6.576;2023-05-10T12:10:25;16.50;99.90
58554;DHT22;48119;53.218;6.576;2023-05-10T12:12:59;16.50;99.90
58554;DHT22;48119;53.218;6.576;2023-05-10T12:15:35;16.60;99.90
58554;DHT22;48119;53.218;6.576;2023-05-10T12:18:01;16.50;99.90
58554;DHT22;48119;53.218;6.576;2023-05-10T12:20:28;16.50;99.90
58554;DHT22;48119;53.218;6.576;2023-05-10T12:22:59;16.50;99.90
58554;DHT22;48119;53.218;6.576;2023-05-10T12:25:34;16.60;99.90
58554;DHT22;48119;53.218;6.576;2023-05-10T12:28:04;16.50;99.90
58554;DHT22;48119;53.218;6.576;2023-05-10T12:30:34;16.50;99.90
58554;DHT22;48119;53.218;6.576;2023-05-10T12:33:13;16.50;99.90
58554;DHT22;48119;53.218;6.576;2023-05-10T12:35:50;16.60;99.90
58554;DHT22;48119;53.218;6.576;2023-05-10T12:38:25;16.50;99.90
58554;DHT22;48119;53.218;6.576;2023-05-10T12:40:56;16.50;99.90
58554;DHT22;48119;53.218;6.576;2023-05-10T12:43:24;16.50;99.90
58554;DHT22;48119;53.218;6.576;2023-05-10T12:45:52;16.60;99.90
58554;DHT22;48119;53.218;6.576;2023-05-10T12:48:21;16.60;99.90
58554;DHT22;48119;53.218;6.576;2023-05-10T12:50:46;16.50;99.90
58554;DHT22;48119;53.218;6.576;2023-05-10T12:53:22;16.50;99.90
58554;DHT22;48119;53.218;6.576;2023-05-10T12:55:50;16.60;99.90
58554;DHT22;48119;53.218;6.576;2023-05-10T12:58:18;16.50;99.90
58554;DHT22;48119;53.218;6.576;2023-05-10T13:00:44;16.60;99.90
58554;DHT22;48119;53.218;6.576;2023-05-10T13:03:14;16.50;99.90
58554;DHT22;48119;53.218;6.576;2023-05-10T13:05:41;16.50;99.90
58554;DHT22;48119;53.218;6.576;2023-05-10T13:08:10;16.60;99.90
58554;DHT22;48119;53.218;6.576;2023-05-10T13:10:41;16.60;99.90
58554;DHT22;48119;53.218;6.576;2023-05-10T13:13:07;16.60;99.90
58554;DHT22;48119;53.218;6.576;2023-05-10T13:15:36;16.60;99.90
58554;DHT22;48119;53.218;6.576;2023-05-10T13:18:05;16.60;99.90
58554;DHT22;48119;53.218;6.576;2023-05-10T13:20:31;16.60;99.90
58554;DHT22;48119;53.218;6.576;2023-05-10T13:22:59;16.60;99.90
58554;DHT22;48119;53.218;6.576;2023-05-10T13:25:25;16.60;99.90
58554;DHT22;48119;53.218;6.576;2023-05-10T13:27:54;16.70;99.90
58554;DHT22;48119;53.218;6.576;2023-05-10T13:30:22;16.60;99.90
58554;DHT22;48119;53.218;6.576;2023-05-10T13:32:49;16.70;99.90
58554;DHT22;48119;53.218;6.576;2023-05-10T13:35:15;16.70;99.90
58554;DHT22;48119;53.218;6.576;2023-05-10T13:37:41;16.70;99.90
58554;DHT22;48119;53.218;6.576;2023-05-10T13:40:10;16.70;99.90
58554;DHT22;48119;53.218;6.576;2023-05-10T13:42:38;16.70;99.90
58554;DHT22;48119;53.218;6.576;2023-05-10T13:45:04;16.60;99.90
58554;DHT22;48119;53.218;6.576;2023-05-10T13:47:30;16.70;99.90
58554;DHT22;48119;53.218;6.576;2023-05-10T13:50:25;16.70;99.90
58554;DHT22;48119;53.218;6.576;2023-05-10T13:52:58;16.60;99.90
58554;DHT22;48119;53.218;6.576;2023-05-10T13:55:26;16.70;99.90
58554;DHT22;48119;53.218;6.576;2023-05-10T13:58:10;16.60;99.90
58554;DHT22;48119;53.218;6.576;2023-05-10T14:00:41;16.60;99.90
58554;DHT22;48119;53.218;6.576;2023-05-10T14:03:11;16.70;99.90
58554;DHT22;48119;53.218;6.576;2023-05-10T14:05:40;16.60;99.90
58554;DHT22;48119;53.218;6.576;2023-05-10T14:08:05;16.60;99.90
58554;DHT22;48119;53.218;6.576;2023-05-10T14:10:34;16.70;99.90
58554;DHT22;48119;53.218;6.576;2023-05-10T14:13:05;16.70;99.90
58554;DHT22;48119;53.218;6.576;2023-05-10T14:15:33;16.70;99.90
58554;DHT22;48119;53.218;6.576;2023-05-10T14:17:59;16.70;99.90
58554;DHT22;48119;53.218;6.576;2023-05-10T14:20:27;16.70;99.90
58554;DHT22;48119;53.218;6.576;2023-05-10T14:22:55;16.70;99.90
58554;DHT22;48119;53.218;6.576;2023-05-10T14:25:24;16.70;99.90
58554;DHT22;48119;53.218;6.576;2023-05-10T14:27:50;16.70;99.90
58554;DHT22;48119;53.218;6.576;2023-05-10T14:30:20;16.70;99.90
58554;DHT22;48119;53.218;6.576;2023-05-10T14:32:48;16.80;99.90
58554;DHT22;48119;53.218;6.576;2023-05-10T14:35:17;16.80;99.90
58554;DHT22;48119;53.218;6.576;2023-05-10T14:37:45;16.80;99.90
58554;DHT22;48119;53.218;6.576;2023-05-10T14:40:12;16.80;99.90
58554;DHT22;48119;53.218;6.576;2023-05-10T14:42:38;16.70;99.90
58554;DHT22;48119;53.218;6.576;2023-05-10T14:45:06;16.80;99.90
58554;DHT22;48119;53.218;6.576;2023-05-10T14:47:32;16.80;99.90
58554;DHT22;48119;53.218;6.576;2023-05-10T14:49:58;16.90;99.90
58554;DHT22;48119;53.218;6.576;2023-05-10T14:52:24;16.90;99.90
58554;DHT22;48119;53.218;6.576;2023-05-10T14:54:51;16.90;99.90
58554;DHT22;48119;53.218;6.576;2023-05-10T14:57:19;16.90;99.90
58554;DHT22;48119;53.218;6.576;2023-05-10T14:59:45;17.00;99.90
58554;DHT22;48119;53.218;6.576;2023-05-10T15:02:11;16.90;99.90
58554;DHT22;48119;53.218;6.576;2023-05-10T15:04:44;17.00;99.90
58554;DHT22;48119;53.218;6.576;2023-05-10T15:07:16;17.00;99.90
58554;DHT22;48119;53.218;6.576;2023-05-10T15:09:46;17.00;99.90
58554;DHT22;48119;53.218;6.576;2023-05-10T15:12:12;17.00;99.90
58554;DHT22;48119;53.218;6.576;2023-05-10T15:14:38;17.00;99.90
58554;DHT22;48119;53.218;6.576;2023-05-10T15:17:07;17.00;99.90
58554;DHT22;48119;53.218;6.576;2023-05-10T15:19:36;17.10;99.90
58554;DHT22;48119;53.218;6.576;2023-05-10T15:22:05;17.10;99.90
58554;DHT22;48119;53.218;6.576;2023-05-10T15:24:31;17.10;99.90
58554;DHT22;48119;53.218;6.576;2023-05-10T15:26:59;17.10;99.90
58554;DHT22;48119;53.218;6.576;2023-05-10T15:29:26;17.10;99.90
58554;DHT22;48119;53.218;6.576;2023-05-10T15:31:55;17.10;99.90
58554;DHT22;48119;53.218;6.576;2023-05-10T15:34:21;17.00;99.90
58554;DHT22;48119;53.218;6.576;2023-05-10T15:36:49;17.00;99.90
58554;DHT22;48119;53.218;6.576;2023-05-10T15:39:15;17.10;99.90
58554;DHT22;48119;53.218;6.576;2023-05-10T15:41:43;17.10;99.90
58554;DHT22;48119;53.218;6.576;2023-05-10T15:44:09;17.10;99.90
58554;DHT22;48119;53.218;6.576;2023-05-10T15:46:37;17.10;99.90
58554;DHT22;48119;53.218;6.576;2023-05-10T15:49:05;17.10;99.90
58554;DHT22;48119;53.218;6.576;2023-05-10T15:51:32;17.00;99.90
58554;DHT22;48119;53.218;6.576;2023-05-10T15:54:03;17.00;99.90
58554;DHT22;48119;53.218;6.576;2023-05-10T15:56:32;17.00;99.90
58554;DHT22;48119;53.218;6.576;2023-05-10T15:59:01;17.00;99.90
58554;DHT22;48119;53.218;6.576;2023-05-10T16:01:38;16.90;99.90
58554;DHT22;48119;53.218;6.576;2023-05-10T16:04:04;16.90;99.90
58554;DHT22;48119;53.218;6.576;2023-05-10T16:06:35;16.90;99.90
58554;DHT22;48119;53.218;6.576;2023-05-10T16:09:03;16.90;99.90
58554;DHT22;48119;53.218;6.576;2023-05-10T16:11:29;16.90;99.90
58554;DHT22;48119;53.218;6.576;2023-05-10T16:13:55;16.80;99.90
58554;DHT22;48119;53.218;6.576;2023-05-10T16:16:23;16.90;99.90
58554;DHT22;48119;53.218;6.576;2023-05-10T16:18:49;16.80;99.90
58554;DHT22;48119;53.218;6.576;2023-05-10T16:21:16;16.80;99.90
58554;DHT22;48119;53.218;6.576;2023-05-10T16:23:41;16.80;99.90
58554;DHT22;48119;53.218;6.576;2023-05-10T16:26:11;16.80;99.90
58554;DHT22;48119;53.218;6.576;2023-05-10T16:28:37;16.70;99.90